createdAt,value
2018-04-12T00:00:06.027Z,11.69
2018-04-12T00:01:10.798Z,11.69
2018-04-12T00:02:06.425Z,11.69
2018-04-12T00:03:11.145Z,11.75
2018-04-12T00:04:05.794Z,11.75
2018-04-12T00:05:11.356Z,11.75
2018-04-12T00:06:06.022Z,11.69
2018-04-12T00:07:06.569Z,11.69
2018-04-12T00:08:06.103Z,11.69
2018-04-12T00:09:11.044Z,11.69
2018-04-12T00:10:05.622Z,11.62
2018-04-12T00:11:05.784Z,11.62
2018-04-12T00:12:05.635Z,11.62
2018-04-12T00:13:06.100Z,11.62
2018-04-12T00:14:05.789Z,11.62
2018-04-12T00:15:05.967Z,11.62
2018-04-12T00:16:05.560Z,11.69
2018-04-12T00:17:11.221Z,11.62
2018-04-12T00:18:05.728Z,11.62
2018-04-12T00:19:11.525Z,11.62
2018-04-12T00:20:06.256Z,11.62
2018-04-12T00:21:05.690Z,11.62
2018-04-12T00:22:05.954Z,11.62
2018-04-12T00:23:06.261Z,11.56
2018-04-12T00:24:11.269Z,11.62
2018-04-12T00:25:05.853Z,11.56
2018-04-12T00:26:05.946Z,11.56
2018-04-12T00:27:05.922Z,11.56
2018-04-12T00:28:06.759Z,11.62
2018-04-12T00:29:06.028Z,11.62
2018-04-12T00:30:06.839Z,11.69
2018-04-12T00:31:05.815Z,11.69
2018-04-12T00:32:05.940Z,11.69
2018-04-12T00:33:06.273Z,11.69
2018-04-12T00:34:05.779Z,11.69
2018-04-12T00:35:05.696Z,11.69
2018-04-12T00:36:05.615Z,11.69
2018-04-12T00:37:06.923Z,11.62
2018-04-12T00:38:06.034Z,11.62
2018-04-12T00:39:05.553Z,11.69
2018-04-12T00:40:06.252Z,11.62
2018-04-12T00:41:06.336Z,11.69
2018-04-12T00:42:06.360Z,11.69
2018-04-12T00:43:06.094Z,11.75
2018-04-12T00:44:06.141Z,11.69
2018-04-12T00:45:05.939Z,11.69
2018-04-12T00:46:05.552Z,11.69
2018-04-12T00:47:06.210Z,11.75
2018-04-12T00:48:05.783Z,11.69
2018-04-12T00:49:06.261Z,11.69
2018-04-12T00:50:05.988Z,11.69
2018-04-12T00:51:06.088Z,11.62
2018-04-12T00:52:05.633Z,11.62
2018-04-12T00:53:05.939Z,11.62
2018-04-12T00:54:06.927Z,11.62
2018-04-12T00:55:05.627Z,11.56
2018-04-12T00:56:06.175Z,11.56
2018-04-12T00:57:11.230Z,11.56
2018-04-12T00:58:05.538Z,11.56
2018-04-12T00:59:06.576Z,11.56
2018-04-12T01:00:06.275Z,11.56
2018-04-12T01:01:05.763Z,11.50
2018-04-12T01:02:10.966Z,11.56
2018-04-12T01:03:06.176Z,11.56
2018-04-12T01:04:06.346Z,11.62
2018-04-12T01:05:06.802Z,11.56
2018-04-12T01:06:06.100Z,11.56
2018-04-12T01:07:05.934Z,11.56
2018-04-12T01:08:05.943Z,11.56
2018-04-12T01:09:11.059Z,11.56
2018-04-12T01:10:05.726Z,11.50
2018-04-12T01:11:05.966Z,11.50
2018-04-12T01:12:05.551Z,11.50
2018-04-12T01:13:06.264Z,11.56
2018-04-12T01:14:06.344Z,11.56
2018-04-12T01:15:06.115Z,11.56
2018-04-12T01:16:06.091Z,11.62
2018-04-12T01:17:05.630Z,11.62
2018-04-12T01:18:06.487Z,11.62
2018-04-12T01:19:05.515Z,11.62
2018-04-12T01:20:07.389Z,11.62
2018-04-12T01:21:06.108Z,11.62
2018-04-12T01:22:05.829Z,11.69
2018-04-12T01:23:05.618Z,11.75
2018-04-12T01:24:06.359Z,11.69
2018-04-12T01:25:05.935Z,11.62
2018-04-12T01:26:06.474Z,11.69
2018-04-12T01:27:05.863Z,11.62
2018-04-12T01:28:10.777Z,11.69
2018-04-12T01:29:06.435Z,11.69
2018-04-12T01:30:06.111Z,11.69
2018-04-12T01:31:06.155Z,11.69
2018-04-12T01:32:06.668Z,11.81
2018-04-12T01:33:06.256Z,11.75
2018-04-12T01:34:05.933Z,11.69
2018-04-12T01:35:06.259Z,11.69
2018-04-12T01:36:05.929Z,11.75
2018-04-12T01:37:05.641Z,11.69
2018-04-12T01:38:06.506Z,11.69
2018-04-12T01:39:05.703Z,11.75
2018-04-12T01:40:05.705Z,11.75
2018-04-12T01:41:05.542Z,11.75
2018-04-12T01:42:06.275Z,11.69
2018-04-12T01:43:06.340Z,11.75
2018-04-12T01:44:06.024Z,11.75
2018-04-12T01:45:05.625Z,11.81
2018-04-12T01:46:10.630Z,11.88
2018-04-12T01:47:06.447Z,11.81
2018-04-12T01:48:05.936Z,11.81
2018-04-12T01:49:11.100Z,11.75
2018-04-12T01:50:05.618Z,11.69
2018-04-12T01:51:05.623Z,11.69
2018-04-12T01:52:05.701Z,11.69
2018-04-12T01:53:05.864Z,11.69
2018-04-12T01:54:10.838Z,11.56
2018-04-12T01:55:06.499Z,11.50
2018-04-12T01:56:06.286Z,11.44
2018-04-12T01:57:06.141Z,11.50
2018-04-12T01:58:05.820Z,11.50
2018-04-12T01:59:05.860Z,11.50
2018-04-12T02:00:05.886Z,11.50
2018-04-12T02:01:06.288Z,11.50
2018-04-12T02:02:06.182Z,11.50
2018-04-12T02:03:05.866Z,11.44
2018-04-12T02:04:05.550Z,11.44
2018-04-12T02:05:06.359Z,11.44
2018-04-12T02:06:05.732Z,11.44
2018-04-12T02:07:06.745Z,11.38
2018-04-12T02:08:10.979Z,11.31
2018-04-12T02:09:06.436Z,11.31
2018-04-12T02:10:06.637Z,11.38
2018-04-12T02:11:06.097Z,11.31
2018-04-12T02:12:06.266Z,11.31
2018-04-12T02:13:05.903Z,11.31
2018-04-12T02:14:06.541Z,11.25
2018-04-12T02:15:06.351Z,11.19
2018-04-12T02:16:06.280Z,11.12
2018-04-12T02:17:05.630Z,11.19
2018-04-12T02:18:11.447Z,11.19
2018-04-12T02:19:05.859Z,11.19
2018-04-12T02:20:05.883Z,11.12
2018-04-12T02:21:06.503Z,11.06
2018-04-12T02:22:05.714Z,11.06
2018-04-12T02:23:05.803Z,11.06
2018-04-12T02:24:05.647Z,11.00
2018-04-12T02:25:05.575Z,11.06
2018-04-12T02:26:06.016Z,11.00
2018-04-12T02:27:06.737Z,10.94
2018-04-12T02:28:06.282Z,10.94
2018-04-12T02:29:06.127Z,10.88
2018-04-12T02:30:05.806Z,10.88
2018-04-12T02:31:06.469Z,10.81
2018-04-12T02:32:05.957Z,10.75
2018-04-12T02:33:10.701Z,10.81
2018-04-12T02:34:06.347Z,10.75
2018-04-12T02:35:05.556Z,10.75
2018-04-12T02:36:05.701Z,10.75
2018-04-12T02:37:05.712Z,10.81
2018-04-12T02:38:06.103Z,10.81
2018-04-12T02:39:05.791Z,10.88
2018-04-12T02:40:06.579Z,10.81
2018-04-12T02:41:06.446Z,10.75
2018-04-12T02:42:06.353Z,10.75
2018-04-12T02:43:06.022Z,10.69
2018-04-12T02:44:05.948Z,10.69
2018-04-12T02:45:11.438Z,10.69
2018-04-12T02:46:06.932Z,10.62
2018-04-12T02:47:06.981Z,10.62
2018-04-12T02:48:10.883Z,10.62
2018-04-12T02:49:05.656Z,10.56
2018-04-12T02:50:05.547Z,10.56
2018-04-12T02:51:06.733Z,10.50
2018-04-12T02:52:05.568Z,10.44
2018-04-12T02:53:10.652Z,10.44
2018-04-12T02:54:06.268Z,10.56
2018-04-12T02:55:06.152Z,10.50
2018-04-12T02:56:05.709Z,10.50
2018-04-12T02:57:05.712Z,10.44
2018-04-12T02:58:11.363Z,10.38
2018-04-12T02:59:06.098Z,10.38
2018-04-12T03:00:06.342Z,10.38
2018-04-12T03:01:06.179Z,10.50
2018-04-12T03:02:10.976Z,10.44
2018-04-12T03:03:05.548Z,10.38
2018-04-12T03:04:05.549Z,10.38
2018-04-12T03:05:05.641Z,10.38
2018-04-12T03:06:05.724Z,10.38
2018-04-12T03:07:06.438Z,10.31
2018-04-12T03:08:05.962Z,10.38
2018-04-12T03:09:06.189Z,10.38
2018-04-12T03:10:05.714Z,10.38
2018-04-12T03:11:05.712Z,10.38
2018-04-12T03:12:06.487Z,10.31
2018-04-12T03:13:07.415Z,10.44
2018-04-12T03:14:06.261Z,10.44
2018-04-12T03:15:05.924Z,10.50
2018-04-12T03:16:05.789Z,10.50
2018-04-12T03:17:06.272Z,10.44
2018-04-12T03:18:11.378Z,10.44
2018-04-12T03:19:06.030Z,10.44
2018-04-12T03:20:10.643Z,10.38
2018-04-12T03:21:05.861Z,10.44
2018-04-12T03:22:06.091Z,10.38
2018-04-12T03:23:05.715Z,10.31
2018-04-12T03:24:06.480Z,10.31
2018-04-12T03:25:05.623Z,10.31
2018-04-12T03:26:06.423Z,10.25
2018-04-12T03:27:06.666Z,10.31
2018-04-12T03:28:05.548Z,10.25
2018-04-12T03:29:05.547Z,10.25
2018-04-12T03:30:05.854Z,10.25
2018-04-12T03:31:16.321Z,10.19
2018-04-12T03:32:06.023Z,10.31
2018-04-12T03:33:06.005Z,10.25
2018-04-12T03:34:06.113Z,10.19
2018-04-12T03:35:05.793Z,10.19
2018-04-12T03:36:05.629Z,10.19
2018-04-12T03:37:06.189Z,10.12
2018-04-12T03:38:06.348Z,10.12
2018-04-12T03:39:06.013Z,10.12
2018-04-12T03:40:06.111Z,10.06
2018-04-12T03:41:05.861Z,10.06
2018-04-12T03:42:06.318Z,10.06
2018-04-12T03:43:05.904Z,10.06
2018-04-12T03:44:06.205Z,10.06
2018-04-12T03:45:05.716Z,10.06
2018-04-12T03:46:06.594Z,10.00
2018-04-12T03:47:05.968Z,10.00
2018-04-12T03:48:05.836Z,10.06
2018-04-12T03:49:06.301Z,10.19
2018-04-12T03:50:07.158Z,10.12
2018-04-12T03:51:05.632Z,10.12
2018-04-12T03:52:06.507Z,10.12
2018-04-12T03:53:11.620Z,10.06
2018-04-12T03:54:06.260Z,10.12
2018-04-12T03:55:06.026Z,10.19
2018-04-12T03:56:05.616Z,10.19
2018-04-12T03:57:05.821Z,10.12
2018-04-12T03:58:05.942Z,10.12
2018-04-12T03:59:05.778Z,10.12
2018-04-12T04:00:06.478Z,10.12
2018-04-12T04:01:06.174Z,10.12
2018-04-12T04:02:06.044Z,10.19
2018-04-12T04:03:06.439Z,10.25
2018-04-12T04:04:06.276Z,10.19
2018-04-12T04:05:06.187Z,10.19
2018-04-12T04:06:06.104Z,10.19
2018-04-12T04:07:05.940Z,10.38
2018-04-12T04:08:06.208Z,10.56
2018-04-12T04:09:06.023Z,10.62
2018-04-12T04:10:05.938Z,10.75
2018-04-12T04:11:05.537Z,10.56
2018-04-12T04:12:05.708Z,10.44
2018-04-12T04:13:06.562Z,10.44
2018-04-12T04:14:06.354Z,10.62
2018-04-12T04:15:06.516Z,10.69
2018-04-12T04:16:11.018Z,10.69
2018-04-12T04:17:05.856Z,10.88
2018-04-12T04:18:06.360Z,10.94
2018-04-12T04:19:05.945Z,10.94
2018-04-12T04:20:06.676Z,10.81
2018-04-12T04:21:06.204Z,10.62
2018-04-12T04:22:05.768Z,10.38
2018-04-12T04:23:06.221Z,10.19
2018-04-12T04:24:05.887Z,10.00
2018-04-12T04:25:06.671Z,9.81
2018-04-12T04:26:06.059Z,9.69
2018-04-12T04:27:06.496Z,9.56
2018-04-12T04:28:06.275Z,9.44
2018-04-12T04:29:05.995Z,9.31
2018-04-12T04:30:11.161Z,9.25
2018-04-12T04:31:05.796Z,9.12
2018-04-12T04:32:11.457Z,9.06
2018-04-12T04:33:06.757Z,9.00
2018-04-12T04:34:06.116Z,9.00
2018-04-12T04:35:05.866Z,8.94
2018-04-12T04:36:05.541Z,8.94
2018-04-12T04:37:06.651Z,8.88
2018-04-12T04:38:05.624Z,8.88
2018-04-12T04:39:05.622Z,8.81
2018-04-12T04:40:05.869Z,8.75
2018-04-12T04:41:10.787Z,8.75
2018-04-12T04:42:06.505Z,8.88
2018-04-12T04:43:06.084Z,8.94
2018-04-12T04:44:06.407Z,8.88
2018-04-12T04:45:06.489Z,8.88
2018-04-12T04:46:06.425Z,8.81
2018-04-12T04:47:06.208Z,8.81
2018-04-12T04:48:05.943Z,8.75
2018-04-12T04:49:05.854Z,8.69
2018-04-12T04:50:05.857Z,8.69
2018-04-12T04:51:06.507Z,8.69
2018-04-12T04:52:05.936Z,8.62
2018-04-12T04:53:06.199Z,8.62
2018-04-12T04:54:05.867Z,8.62
2018-04-12T04:55:06.425Z,8.62
2018-04-12T04:56:05.972Z,8.62
2018-04-12T04:57:06.347Z,8.62
2018-04-12T04:58:06.237Z,8.62
2018-04-12T04:59:06.021Z,8.56
2018-04-12T05:00:05.954Z,8.56
2018-04-12T05:01:06.252Z,8.56
2018-04-12T05:02:06.322Z,8.56
2018-04-12T05:03:06.180Z,8.56
2018-04-12T05:04:05.650Z,8.56
2018-04-12T05:05:06.506Z,8.56
2018-04-12T05:06:06.120Z,8.56
2018-04-12T05:07:06.022Z,8.56
2018-04-12T05:08:06.205Z,8.50
2018-04-12T05:09:05.617Z,8.50
2018-04-12T05:10:06.255Z,8.50
2018-04-12T05:11:06.303Z,8.50
2018-04-12T05:12:11.469Z,8.50
2018-04-12T05:13:06.784Z,8.44
2018-04-12T05:14:06.341Z,8.31
2018-04-12T05:15:05.554Z,8.25
2018-04-12T05:16:05.470Z,8.25
2018-04-12T05:17:06.332Z,8.31
2018-04-12T05:18:06.018Z,8.38
2018-04-12T05:19:05.944Z,8.44
2018-04-12T05:20:05.779Z,8.44
2018-04-12T05:21:05.712Z,8.44
2018-04-12T05:22:06.519Z,8.44
2018-04-12T05:23:06.360Z,8.44
2018-04-12T05:24:06.348Z,8.44
2018-04-12T05:25:05.783Z,8.44
2018-04-12T05:26:06.480Z,8.44
2018-04-12T05:27:06.102Z,8.44
2018-04-12T05:28:05.947Z,8.50
2018-04-12T05:29:05.649Z,8.50
2018-04-12T05:30:06.503Z,8.56
2018-04-12T05:31:06.507Z,8.56
2018-04-12T05:32:05.571Z,9.00
2018-04-12T05:33:05.716Z,9.56
2018-04-12T05:34:06.357Z,9.75
2018-04-12T05:35:06.068Z,9.94
2018-04-12T05:36:05.911Z,10.06
2018-04-12T05:37:05.633Z,10.12
2018-04-12T05:38:05.632Z,10.06
2018-04-12T05:39:06.432Z,10.12
2018-04-12T05:40:06.614Z,10.31
2018-04-12T05:41:05.690Z,10.25
2018-04-12T05:42:05.767Z,10.38
2018-04-12T05:43:06.436Z,10.50
2018-04-12T05:44:06.241Z,10.56
2018-04-12T05:45:05.987Z,10.56
2018-04-12T05:46:05.653Z,10.44
2018-04-12T05:47:06.271Z,10.38
2018-04-12T05:48:06.029Z,10.25
2018-04-12T05:49:11.040Z,10.19
2018-04-12T05:50:05.701Z,10.12
2018-04-12T05:51:11.355Z,10.06
2018-04-12T05:52:05.936Z,10.00
2018-04-12T05:53:05.673Z,9.94
2018-04-12T05:54:06.269Z,9.88
2018-04-12T05:55:06.189Z,9.88
2018-04-12T05:56:06.470Z,9.94
2018-04-12T05:57:06.110Z,10.06
2018-04-12T05:58:06.378Z,10.12
2018-04-12T05:59:06.963Z,10.06
2018-04-12T06:00:06.357Z,10.06
2018-04-12T06:01:06.115Z,10.00
2018-04-12T06:02:06.191Z,9.94
2018-04-12T06:03:11.112Z,9.94
2018-04-12T06:04:05.710Z,9.94
2018-04-12T06:05:05.633Z,9.88
2018-04-12T06:06:06.619Z,9.88
2018-04-12T06:07:05.557Z,9.88
2018-04-12T06:08:05.944Z,10.06
2018-04-12T06:09:05.840Z,10.25
2018-04-12T06:10:05.631Z,10.31
2018-04-12T06:11:11.429Z,10.19
2018-04-12T06:12:05.953Z,9.94
2018-04-12T06:13:06.598Z,9.81
2018-04-12T06:14:05.785Z,9.81
2018-04-12T06:15:06.437Z,9.81
2018-04-12T06:16:11.109Z,9.88
2018-04-12T06:17:05.625Z,9.94
2018-04-12T06:18:05.715Z,10.00
2018-04-12T06:19:06.405Z,10.06
2018-04-12T06:20:06.503Z,10.19
2018-04-12T06:21:05.999Z,10.25
2018-04-12T06:22:06.118Z,10.31
2018-04-12T06:23:05.989Z,10.38
2018-04-12T06:24:05.821Z,10.38
2018-04-12T06:25:05.969Z,10.56
2018-04-12T06:26:06.412Z,10.81
2018-04-12T06:27:06.861Z,11.00
2018-04-12T06:28:05.877Z,11.19
2018-04-12T06:29:05.737Z,11.31
2018-04-12T06:30:05.728Z,10.94
2018-04-12T06:31:06.161Z,10.88
2018-04-12T06:32:06.083Z,10.94
2018-04-12T06:33:05.981Z,11.00
2018-04-12T06:34:10.824Z,11.06
2018-04-12T06:35:06.425Z,11.06
2018-04-12T06:36:06.589Z,11.12
2018-04-12T06:37:06.282Z,11.12
2018-04-12T06:38:05.813Z,11.19
2018-04-12T06:39:05.626Z,11.25
2018-04-12T06:40:05.692Z,11.25
2018-04-12T06:41:06.210Z,11.25
2018-04-12T06:42:07.016Z,11.38
2018-04-12T06:43:05.634Z,11.50
2018-04-12T06:44:06.437Z,11.56
2018-04-12T06:45:05.715Z,11.56
2018-04-12T06:46:06.258Z,11.81
2018-04-12T06:47:06.358Z,11.81
2018-04-12T06:48:06.773Z,11.75
2018-04-12T06:49:05.561Z,11.75
2018-04-12T06:50:06.338Z,11.75
2018-04-12T06:51:06.249Z,11.81
2018-04-12T06:52:06.694Z,11.81
2018-04-12T06:53:06.095Z,11.88
2018-04-12T06:54:05.651Z,11.94
2018-04-12T06:55:06.362Z,12.00
2018-04-12T06:56:06.213Z,12.00
2018-04-12T06:57:06.414Z,12.00
2018-04-12T06:58:05.963Z,12.00
2018-04-12T06:59:05.870Z,12.00
2018-04-12T07:00:05.795Z,12.00
2018-04-12T07:01:05.951Z,12.00
2018-04-12T07:02:06.503Z,12.06
2018-04-12T07:03:06.428Z,12.12
2018-04-12T07:04:05.545Z,12.19
2018-04-12T07:05:05.867Z,12.25
2018-04-12T07:06:06.264Z,12.25
2018-04-12T07:07:06.380Z,12.25
2018-04-12T07:08:06.118Z,12.25
2018-04-12T07:09:06.093Z,12.25
2018-04-12T07:10:06.492Z,12.25
2018-04-12T07:11:06.420Z,12.25
2018-04-12T07:12:06.349Z,12.25
2018-04-12T07:13:05.864Z,12.19
2018-04-12T07:14:05.933Z,12.19
2018-04-12T07:15:15.966Z,12.19
2018-04-12T07:16:05.631Z,12.12
2018-04-12T07:17:06.408Z,12.12
2018-04-12T07:18:11.457Z,12.19
2018-04-12T07:19:06.143Z,12.50
2018-04-12T07:20:06.105Z,12.75
2018-04-12T07:21:06.179Z,13.00
2018-04-12T07:22:05.717Z,13.00
2018-04-12T07:23:06.002Z,12.88
2018-04-12T07:24:06.561Z,12.75
2018-04-12T07:25:06.311Z,12.69
2018-04-12T07:26:06.222Z,12.56
2018-04-12T07:27:05.877Z,12.50
2018-04-12T07:28:05.881Z,12.38
2018-04-12T07:29:06.447Z,12.38
2018-04-12T07:30:11.262Z,12.31
2018-04-12T07:31:05.877Z,12.25
2018-04-12T07:32:06.121Z,12.19
2018-04-12T07:33:06.747Z,12.44
2018-04-12T07:34:06.459Z,12.69
2018-04-12T07:35:06.091Z,13.00
2018-04-12T07:36:05.791Z,13.00
2018-04-12T07:37:05.876Z,12.88
2018-04-12T07:38:05.645Z,13.06
2018-04-12T07:39:06.288Z,13.31
2018-04-12T07:40:06.869Z,13.31
2018-04-12T07:41:05.941Z,13.31
2018-04-12T07:42:11.048Z,13.56
2018-04-12T07:43:06.770Z,13.56
2018-04-12T07:44:06.500Z,13.56
2018-04-12T07:45:06.659Z,13.50
2018-04-12T07:46:07.079Z,13.56
2018-04-12T07:47:05.949Z,13.75
2018-04-12T07:48:06.105Z,13.75
2018-04-12T07:49:06.620Z,13.81
2018-04-12T07:50:06.618Z,13.94
2018-04-12T07:51:06.509Z,14.12
2018-04-12T07:52:06.436Z,14.06
2018-04-12T07:53:05.864Z,14.19
2018-04-12T07:54:05.947Z,14.31
2018-04-12T07:55:05.856Z,14.50
2018-04-12T07:56:06.293Z,14.62
2018-04-12T07:57:06.340Z,14.75
2018-04-12T07:58:06.463Z,14.81
2018-04-12T07:59:06.266Z,14.94
2018-04-12T08:00:06.283Z,15.06
2018-04-12T08:01:06.125Z,15.12
2018-04-12T08:02:05.733Z,15.12
2018-04-12T08:03:05.881Z,15.19
2018-04-12T08:04:05.862Z,15.25
2018-04-12T08:05:06.577Z,15.38
2018-04-12T08:06:06.744Z,15.38
2018-04-12T08:07:06.426Z,15.38
2018-04-12T08:08:06.210Z,15.38
2018-04-12T08:09:05.859Z,15.44
2018-04-12T08:10:06.005Z,15.50
2018-04-12T08:11:05.943Z,15.62
2018-04-12T08:12:07.166Z,15.69
2018-04-12T08:13:10.647Z,15.81
2018-04-12T08:14:10.892Z,15.94
2018-04-12T08:15:05.624Z,16.00
2018-04-12T08:16:06.483Z,16.06
2018-04-12T08:17:06.080Z,16.12
2018-04-12T08:18:06.510Z,16.19
2018-04-12T08:19:06.354Z,16.25
2018-04-12T08:20:06.105Z,16.31
2018-04-12T08:21:05.860Z,16.31
2018-04-12T08:22:06.479Z,16.25
2018-04-12T08:23:05.709Z,16.31
2018-04-12T08:24:05.707Z,16.25
2018-04-12T08:25:07.073Z,16.25
2018-04-12T08:26:06.039Z,16.25
2018-04-12T08:27:06.187Z,16.19
2018-04-12T08:28:06.370Z,16.19
2018-04-12T08:29:06.167Z,16.25
2018-04-12T08:30:06.433Z,16.31
2018-04-12T08:31:06.260Z,16.31
2018-04-12T08:32:06.508Z,16.19
2018-04-12T08:33:06.190Z,16.25
2018-04-12T08:34:05.846Z,16.25
2018-04-12T08:35:06.191Z,16.25
2018-04-12T08:36:06.108Z,16.25
2018-04-12T08:37:05.825Z,16.25
2018-04-12T08:38:06.354Z,16.19
2018-04-12T08:39:06.025Z,16.12
2018-04-12T08:40:05.870Z,16.25
2018-04-12T08:41:06.025Z,16.44
2018-04-12T08:42:05.941Z,16.50
2018-04-12T08:43:06.395Z,16.56
2018-04-12T08:44:06.343Z,16.56
2018-04-12T08:45:06.020Z,16.56
2018-04-12T08:46:05.985Z,16.62
2018-04-12T08:47:06.108Z,16.75
2018-04-12T08:48:06.060Z,16.94
2018-04-12T08:49:05.715Z,17.00
2018-04-12T08:50:05.468Z,17.06
2018-04-12T08:51:05.639Z,17.06
2018-04-12T08:52:06.762Z,17.25
2018-04-12T08:53:05.949Z,17.12
2018-04-12T08:54:05.961Z,17.06
2018-04-12T08:55:06.500Z,17.00
2018-04-12T08:56:05.718Z,16.94
2018-04-12T08:57:07.257Z,16.94
2018-04-12T08:58:05.539Z,16.88
2018-04-12T08:59:05.709Z,16.88
2018-04-12T09:00:10.781Z,16.81
2018-04-12T09:01:06.435Z,16.75
2018-04-12T09:02:06.503Z,16.75
2018-04-12T09:03:06.434Z,16.75
2018-04-12T09:04:12.368Z,16.81
2018-04-12T09:05:06.028Z,16.88
2018-04-12T09:06:05.869Z,16.88
2018-04-12T09:07:10.825Z,16.88
2018-04-12T09:08:05.812Z,16.94
2018-04-12T09:09:06.353Z,16.88
2018-04-12T09:10:11.284Z,16.75
2018-04-12T09:11:05.956Z,16.69
2018-04-12T09:12:05.630Z,16.56
2018-04-12T09:13:06.437Z,16.50
2018-04-12T09:14:06.352Z,16.50
2018-04-12T09:15:06.138Z,16.69
2018-04-12T09:16:06.019Z,16.75
2018-04-12T09:17:06.514Z,16.94
2018-04-12T09:18:06.602Z,17.00
2018-04-12T09:19:06.330Z,17.12
2018-04-12T09:20:06.043Z,17.12
2018-04-12T09:21:06.467Z,17.25
2018-04-12T09:22:06.103Z,17.12
2018-04-12T09:23:05.784Z,17.12
2018-04-12T09:24:05.783Z,17.19
2018-04-12T09:25:06.581Z,17.19
2018-04-12T09:26:05.786Z,17.25
2018-04-12T09:27:06.997Z,17.31
2018-04-12T09:28:06.110Z,17.31
2018-04-12T09:29:05.864Z,17.31
2018-04-12T09:30:05.950Z,17.25
2018-04-12T09:31:05.958Z,17.25
2018-04-12T09:32:06.468Z,17.19
2018-04-12T09:33:06.189Z,17.19
2018-04-12T09:34:06.045Z,17.25
2018-04-12T09:35:05.638Z,17.25
2018-04-12T09:36:06.457Z,17.38
2018-04-12T09:37:06.428Z,17.56
2018-04-12T09:38:06.131Z,17.75
2018-04-12T09:39:06.108Z,17.69
2018-04-12T09:40:06.122Z,17.81
2018-04-12T09:41:06.435Z,17.75
2018-04-12T09:42:06.339Z,17.88
2018-04-12T09:43:06.436Z,17.94
2018-04-12T09:44:11.444Z,17.94
2018-04-12T09:45:06.034Z,18.00
2018-04-12T09:46:05.922Z,18.00
2018-04-12T09:47:06.107Z,18.06
2018-04-12T09:48:06.195Z,18.19
2018-04-12T09:49:06.290Z,18.06
2018-04-12T09:50:05.963Z,18.00
2018-04-12T09:51:06.124Z,18.00
2018-04-12T09:52:05.653Z,17.94
2018-04-12T09:53:06.342Z,18.00
2018-04-12T09:54:05.963Z,18.00
2018-04-12T09:55:05.674Z,18.00
2018-04-12T09:56:06.589Z,18.00
2018-04-12T09:57:06.252Z,18.00
2018-04-12T09:58:06.409Z,18.12
2018-04-12T09:59:06.135Z,18.25
2018-04-12T10:00:10.888Z,18.25
2018-04-12T10:01:05.714Z,18.31
2018-04-12T10:02:05.560Z,18.31
2018-04-12T10:03:05.855Z,18.38
2018-04-12T10:04:06.362Z,18.50
2018-04-12T10:05:05.805Z,18.62
2018-04-12T10:06:05.892Z,18.62
2018-04-12T10:07:09.319Z,18.75
2018-04-12T10:08:11.109Z,18.88
2018-04-12T10:09:08.427Z,18.94
2018-04-12T10:10:11.379Z,19.00
2018-04-12T10:11:06.031Z,19.00
2018-04-12T10:12:10.717Z,19.00
2018-04-12T10:13:06.268Z,18.94
2018-04-12T10:14:06.187Z,18.88
2018-04-12T10:15:05.785Z,18.81
2018-04-12T10:16:06.935Z,18.81
2018-04-12T10:17:05.849Z,18.81
2018-04-12T10:18:06.873Z,18.81
2018-04-12T10:19:06.250Z,18.81
2018-04-12T10:20:06.353Z,18.81
2018-04-12T10:21:07.043Z,18.75
2018-04-12T10:22:05.742Z,18.75
2018-04-12T10:23:05.636Z,18.75
2018-04-12T10:24:05.536Z,18.81
2018-04-12T10:25:06.373Z,18.88
2018-04-12T10:26:06.038Z,18.88
2018-04-12T10:27:05.992Z,18.94
2018-04-12T10:28:11.110Z,19.12
2018-04-12T10:29:05.799Z,19.12
2018-04-12T10:30:06.432Z,19.12
2018-04-12T10:31:06.553Z,19.12
2018-04-12T10:32:05.943Z,19.19
2018-04-12T10:33:06.255Z,19.25
2018-04-12T10:34:05.621Z,19.31
2018-04-12T10:35:05.870Z,19.44
2018-04-12T10:36:05.879Z,19.50
2018-04-12T10:37:05.945Z,19.44
2018-04-12T10:38:06.266Z,19.38
2018-04-12T10:39:05.948Z,19.31
2018-04-12T10:40:06.249Z,19.25
2018-04-12T10:41:05.862Z,19.19
2018-04-12T10:42:06.540Z,19.25
2018-04-12T10:43:06.446Z,19.25
2018-04-12T10:44:06.440Z,19.25
2018-04-12T10:45:06.294Z,19.31
2018-04-12T10:46:06.115Z,19.31
2018-04-12T10:47:06.049Z,19.31
2018-04-12T10:48:11.066Z,19.38
2018-04-12T10:49:05.709Z,19.38
2018-04-12T10:50:06.019Z,19.44
2018-04-12T10:51:06.048Z,19.44
2018-04-12T10:52:05.881Z,19.50
2018-04-12T10:53:06.440Z,19.56
2018-04-12T10:54:05.470Z,19.81
2018-04-12T10:55:05.958Z,19.88
2018-04-12T10:56:05.786Z,20.00
2018-04-12T10:57:07.095Z,20.06
2018-04-12T10:58:06.115Z,20.06
2018-04-12T10:59:05.798Z,20.12
2018-04-12T11:00:10.860Z,20.19
2018-04-12T11:01:05.851Z,20.25
2018-04-12T11:02:06.062Z,20.19
2018-04-12T11:03:05.879Z,20.19
2018-04-12T11:04:06.585Z,20.19
2018-04-12T11:05:06.746Z,20.19
2018-04-12T11:06:06.167Z,20.19
2018-04-12T11:07:05.789Z,20.12
2018-04-12T11:08:05.978Z,20.12
2018-04-12T11:09:05.734Z,20.06
2018-04-12T11:10:05.629Z,20.06
2018-04-12T11:11:05.860Z,20.06
2018-04-12T11:12:05.710Z,20.12
2018-04-12T11:13:06.812Z,20.06
2018-04-12T11:14:06.448Z,20.06
2018-04-12T11:15:05.730Z,20.12
2018-04-12T11:16:05.810Z,20.19
2018-04-12T11:17:11.416Z,20.19
2018-04-12T11:18:05.633Z,20.25
2018-04-12T11:19:06.643Z,20.31
2018-04-12T11:20:06.430Z,20.31
2018-04-12T11:21:10.957Z,20.31
2018-04-12T11:22:05.555Z,20.50
2018-04-12T11:23:06.435Z,20.62
2018-04-12T11:24:06.032Z,20.75
2018-04-12T11:25:06.261Z,20.75
2018-04-12T11:26:06.235Z,20.88
2018-04-12T11:27:05.958Z,20.94
2018-04-12T11:28:06.344Z,20.88
2018-04-12T11:29:06.192Z,20.88
2018-04-12T11:30:05.662Z,20.88
2018-04-12T11:31:07.435Z,20.81
2018-04-12T11:32:06.255Z,20.75
2018-04-12T11:33:06.206Z,20.69
2018-04-12T11:34:06.090Z,20.69
2018-04-12T11:35:06.088Z,20.75
2018-04-12T11:36:06.247Z,20.75
2018-04-12T11:37:05.711Z,20.81
2018-04-12T11:38:06.135Z,20.88
2018-04-12T11:39:06.350Z,20.88
2018-04-12T11:40:05.937Z,20.88
2018-04-12T11:41:05.561Z,20.81
2018-04-12T11:42:06.265Z,20.81
2018-04-12T11:43:06.330Z,20.81
2018-04-12T11:44:06.133Z,20.81
2018-04-12T11:45:05.710Z,20.75
2018-04-12T11:46:05.785Z,20.75
2018-04-12T11:47:05.620Z,20.75
2018-04-12T11:48:06.277Z,20.75
2018-04-12T11:49:06.497Z,20.81
2018-04-12T11:50:06.311Z,20.94
2018-04-12T11:51:06.518Z,20.94
2018-04-12T11:52:05.935Z,20.94
2018-04-12T11:53:06.502Z,21.00
2018-04-12T11:54:06.279Z,21.00
2018-04-12T11:55:05.862Z,21.00
2018-04-12T11:56:05.738Z,21.06
2018-04-12T11:57:06.624Z,21.06
2018-04-12T11:58:06.260Z,21.12
2018-04-12T11:59:06.201Z,21.12
2018-04-12T12:00:06.511Z,21.38
2018-04-12T12:01:05.701Z,21.38
2018-04-12T12:02:06.263Z,21.50
2018-04-12T12:03:06.379Z,21.56
2018-04-12T12:04:06.115Z,21.56
2018-04-12T12:05:05.790Z,21.56
2018-04-12T12:06:06.179Z,21.56
2018-04-12T12:07:05.949Z,21.50
2018-04-12T12:08:05.721Z,21.44
2018-04-12T12:09:11.275Z,21.38
2018-04-12T12:10:05.890Z,21.38
2018-04-12T12:11:05.633Z,21.31
2018-04-12T12:12:10.706Z,21.31
2018-04-12T12:13:06.428Z,21.31
2018-04-12T12:14:06.503Z,21.31
2018-04-12T12:15:06.199Z,21.31
2018-04-12T12:16:06.163Z,21.31
2018-04-12T12:17:06.172Z,21.31
2018-04-12T12:18:10.493Z,21.31
2018-04-12T12:19:06.185Z,21.38
2018-04-12T12:20:05.760Z,21.44
2018-04-12T12:21:06.186Z,21.44
2018-04-12T12:22:06.114Z,21.44
2018-04-12T12:23:05.949Z,21.44
2018-04-12T12:24:05.788Z,21.50
2018-04-12T12:25:06.571Z,21.50
2018-04-12T12:26:05.544Z,21.50
2018-04-12T12:27:05.614Z,21.56
2018-04-12T12:28:06.428Z,21.50
2018-04-12T12:29:05.468Z,21.50
2018-04-12T12:30:06.317Z,21.50
2018-04-12T12:31:05.875Z,21.56
2018-04-12T12:32:05.997Z,21.56
2018-04-12T12:33:05.532Z,21.62
2018-04-12T12:34:06.598Z,21.69
2018-04-12T12:35:05.726Z,21.75
2018-04-12T12:36:06.446Z,21.81
2018-04-12T12:37:11.545Z,21.88
2018-04-12T12:38:06.200Z,22.19
2018-04-12T12:39:06.105Z,22.44
2018-04-12T12:40:06.123Z,22.69
2018-04-12T12:41:06.330Z,22.88
2018-04-12T12:42:06.629Z,22.88
2018-04-12T12:43:06.420Z,22.88
2018-04-12T12:44:06.612Z,22.88
2018-04-12T12:45:06.101Z,22.81
2018-04-12T12:46:06.422Z,22.75
2018-04-12T12:47:05.542Z,22.75
2018-04-12T12:48:05.778Z,22.69
2018-04-12T12:49:05.718Z,22.62
2018-04-12T12:50:11.459Z,22.56
2018-04-12T12:51:06.023Z,22.50
2018-04-12T12:52:06.268Z,22.44
2018-04-12T12:53:10.907Z,22.44
2018-04-12T12:54:05.630Z,22.44
2018-04-12T12:55:06.152Z,22.44